Logo AVAMET
Benvolgut visitant, si us plau, ingressa Recuperar contrasenya

València Penya-roja

Dades diàries. Acumulats / Últims 30 dies disponibles

Data Temperatura (°C) Humitat rel. (%) Pressió rel. (hPa) Vent (km/h) Precipitació
Mínima Mitjana Màxima Amplitud
tèrmica
Mínima Mitjana Màxima Mínima Mitjana Màxima Predom. Mitjana Ràfega
màxima
Total
(mm)
Índex-n
Mínima Mitjana Màxima Mínima Mitjana Màxima n
0 a 1
P0 max
mm 5'
Dades mensuals acumulades fins l'últim dia disponible
10/2019 17,8 19,8 21,7 23,1 23,1 27,1 35,1 17,3 11 68 91 1.001 1.011 1.017   5,7 36,7 0,0
Dades anuals acumulades fins l'últim dia disponible
2019 2,7 16,3 27,3 19,6 13,2 23,4 40,9 38,2 11 64 99 987 1.011 1.030   8,2 72,4 239,4
Últims 30 dies disponibles
13-10-2019 20,6     23,1     26,0 5,4 70 80 90 1.010 1.011 1.012 SSE 5,0 20,9 0,0
12-10-2019 21,7     23,2     25,4 3,7 73 79 85 1.011 1.012 1.014 NE 4,4 23,4 0,0
11-10-2019 20,8     23,1     25,9 5,1 65 74 81 1.013 1.015 1.017 SE 4,8 22,0 0,0
10-10-2019 20,5     22,2     23,1 2,6 60 75 87 1.013 1.015 1.017 NE 6,9 30,6 0,0
09-10-2019 20,0     23,1     26,3 6,3 65 75 83 1.009 1.011 1.014 E 4,3 19,4 0,0
08-10-2019 18,3     22,6     26,5 8,2 57 69 80 1.010 1.012 1.015 SE 5,3 23,4 0,0
07-10-2019 19,1     22,4     26,8 7,7 35 68 89 1.009 1.011 1.013 E 5,5 29,5 0,0
06-10-2019 18,7     22,6     27,1 8,4 56 74 82 1.010 1.011 1.013 NE 4,9 18,4 0,0
05-10-2019 19,4     22,8     26,7 7,3 50 67 82 1.008 1.009 1.011 ENE 5,3 25,6 0,0
04-10-2019 18,0     22,7     28,8 10,8 30 61 85 1.007 1.010 1.012 N 6,9 23,4 0,0
03-10-2019 17,8     22,1     26,2 8,4 34 51 73 1.009 1.010 1.012 NW 6,9 25,6 0,0
02-10-2019 21,1     24,9     29,0 7,9 27 42 63 1.005 1.008 1.011 NNW 8,5 36,7 0,0
01-10-2019 20,8     25,3     35,1 14,3 11 73 91 1.001 1.005 1.010 N 4,9 25,6 0,0
30-09-2019 20,6     23,9     26,6 6,0 53 75 85 1.009 1.010 1.012 NE 4,9 24,5 0,0
29-09-2019 20,1     24,4     28,7 8,6 47 75 90 1.008 1.011 1.013 ESE 5,3 28,1 0,0
28-09-2019 20,7     23,9     26,6 5,9 64 78 87 1.012 1.013 1.015 NE 5,7 22,0 0,0
27-09-2019 20,8     24,3     27,8 7,0 60 80 90 1.010 1.011 1.013 NE 6,3 24,5 0,0
26-09-2019 21,2     24,1     27,1 5,9 61 75 86 1.011 1.012 1.014 E 5,3 31,7 0,0
25-09-2019 22,7     25,0     28,2 5,5 31 60 79 1.007 1.009 1.012 NE 9,5 30,6 0,0
24-09-2019 18,9     26,4     33,8 14,9 20 51 80 1.006 1.009 1.013 WNW 9,8 41,8 0,0
23-09-2019 20,3     23,6     27,0 6,7 39 56 77 1.010 1.012 1.014 NW 7,0 24,5 0,0
22-09-2019 21,7     26,1     31,3 9,6 39 64 97 1.005 1.006 1.010 NW 9,4 36,7 0,0
21-09-2019 22,3     24,6     28,5 6,2 60 76 88 1.005 1.007 1.009 ENE 6,2 23,4 0,0
20-09-2019 22,1     23,8     26,0 3,9 75 82 90 1.009 1.011 1.013 NE 7,0 29,5 0,0
19-09-2019 20,9     23,9     26,6 5,7 58 74 81 1.010 1.011 1.012 ENE 5,2 22,0 0,0
18-09-2019 21,4     24,7     29,4 8,0 43 66 81 1.008 1.009 1.011 N 5,4 19,4 0,0
17-09-2019 21,0     24,3     28,3 7,3 57 78 92 1.008 1.010 1.012 SE 4,1 23,4 0,0
16-09-2019 22,8     24,4     26,6 3,8 62 79 94 1.011 1.012 1.014 NE 7,5 27,0 0,0
15-09-2019 22,8     24,0     25,8 3,0 67 77 94 1.012 1.014 1.017 NNE 13,1 36,7 0,0
14-09-2019 18,3     22,3     25,2 6,9 56 77 88 1.014 1.017 1.021 NNE 10,0 45,4 6,7 0,27 0,90
Últims 13 mesos disponibles
09/2019 16,1 21,2 24,4 24,3 21,5 27,5 33,8 17,7 37 70 82 1.004 1.011 1.018 NE 7,9 72,4 129,5
08/2019 19,3 23,7 27,3 26,6 27,0 29,7 40,9 21,6 47 70 82 1.004 1.010 1.014 ENE 7,3 62,3 4,1
07/2019 15,5 23,8 26,6 26,8 27,4 29,6 35,5 20,0 51 68 79 999 1.008 1.015 E 7,5 57,6 3,9
06/2019 15,0 19,5 24,0 22,6 20,4 25,8 33,3 18,3 38 66 81 1.002 1.009 1.016 ENE 7,7 72,4 0,0
05/2019 11,1 16,1 21,3 18,9 18,1 22,1 32,0 20,9 44 66 84 999 1.009 1.018 ENE 8,5 64,8 18,4
04/2019 10,2 12,7 16,0 15,8 15,6 19,5 29,6 19,4 40 64 96 993 1.007 1.019 NE 11,7 68,4 62,2
03/2019 9,1 11,4 16,2 15,2 13,8 19,5 29,2 20,1 40 57 83 1.004 1.017 1.024 NNE 7,8 64,8 19,1
02/2019 2,7 7,7 12,3 12,1 13,2 17,8 23,8 21,1 27 60 73 988 1.019 1.028 WNW 6,3 42,8 0,0
01/2019 2,7 8,2 13,6 12,3 13,2 17,4 21,3 18,6 33 52 72 996 1.013 1.024 O 9,7 70,9 0,7
12/2018 6,8 10,5 14,4 14,0 14,5 19,0 24,4 17,6 45 62 78 1.002 1.019 1.025 ONO 8,2 58,7 8,6
11/2018 8,5 12,7 16,7 15,5 15,4 19,2 23,8 15,3 43 67 96 996 1.009 1.017 ONO 9,9 80,6 141,0
10/2018 8,4 16,3 20,7 19,4 14,1 22,9 27,4 19,0 37 67 86 994 1.008 1.019 NNO 7,6 79,6 175,7
09/2018 17,6 21,7 24,4 24,8 25,0 27,8 31,2 13,6 48 74 85 1.006 1.013 1.022 NE 6,3 42,8 149,3
Tots els anys disponibles
2018 3,9 15,9 26,6 18,9 9,3 22,5 35,6 31,7 33 64 96 992 1.014 1.035 E 9,1 92,9 720,1
2017 2,4 15,8 26,3 19,0 10,2 22,6 36,1 33,7 52 63 71 1.016 1.019 1.023 N 8,4 90,7 321,7
2016 4,3 16,2 26,7 19,0 11,4 23,2 35,8 31,5 51 65 74 1.015 1.019 1.031 N 8,3 100,0 601,3
Temperatura (°C)
Humitat relativa (%)
Velocitat del vent i ràfega màxima (km/h)
Direcció del vent (°)
Precipitació (mm)
Nota sobre les dades: s'avisa a l'usuari de la provisionalitat i no oficialitat d'aquestes dades
Logo AVAMET blanc
Web allotjada a Sollutia
Llicència de Creative CommonsLa web d'AVAMET i els seus continguts estan subjectes a una llicència de
Reconeixement - No Comercial - Compartir igual
Properes estacions: Altea - Club Nàutic d'Altea (Soci),    - - - - -      Últimes estacions: Castielfabib (Soci), Sant Mateu (Soci), Vallada (Soci), Agullent (Soci), Llíria - Bodegas del Campo (Soci), La Pobla Tornesa (Soci) - - -